Time;durP1;ratioP1;P1;durP2;ratioP2;P2;SDS_P1;SDS_P2;PMS_P1;PMS_P2;Temp;Humidity;BMP_temperature;BMP_pressure;BME280_temperature;BME280_humidity;BME280_pressure;Samples;Min_cycle;Max_cycle;Signal;HPM_P1;HPM_P2
2022/07/05 01:29:22;;;;;;;0.00;0.00;;;15.70;74.00;;;;;;3520386;28;22174;-70
2022/07/05 01:31:48;;;;;;;0.00;0.00;;;15.70;74.10;;;;;;5067591;28;20063;-67
2022/07/05 01:34:13;;;;;;;0.00;0.00;;;15.70;73.80;;;;;;5069614;28;20131;-68
2022/07/05 01:36:39;;;;;;;0.00;0.00;;;15.70;74.20;;;;;;5071255;28;20040;-68
2022/07/05 01:39:06;;;;;;;0.00;0.00;;;15.70;74.20;;;;;;5070895;28;20098;-68
2022/07/05 01:41:32;;;;;;;0.00;0.00;;;15.70;74.30;;;;;;5069973;28;20051;-68
2022/07/05 01:43:59;;;;;;;0.00;0.00;;;15.60;74.30;;;;;;5070696;28;20130;-68
2022/07/05 01:46:28;;;;;;;0.00;0.00;;;15.60;74.10;;;;;;5070765;28;20041;-68
2022/07/05 01:48:57;;;;;;;0.00;0.00;;;15.60;73.90;;;;;;5070587;28;20055;-67
2022/07/05 01:51:32;;;;;;;0.00;0.00;;;15.60;73.80;;;;;;5066340;28;20181;-68
2022/07/05 01:53:58;;;;;;;0.00;0.00;;;15.60;73.60;;;;;;5050555;28;20432;-67
2022/07/05 01:56:24;;;;;;;0.00;0.00;;;15.60;73.90;;;;;;5050728;28;20037;-68
2022/07/05 01:58:51;;;;;;;0.00;0.00;;;15.60;74.20;;;;;;5050847;28;20069;-67
2022/07/05 02:01:35;;;;;;;0.00;0.00;;;15.50;74.00;;;;;;5051335;28;20066;-67
2022/07/05 02:04:01;;;;;;;0.00;0.00;;;15.40;74.50;;;;;;5050567;28;20115;-68
2022/07/05 02:06:27;;;;;;;0.00;0.00;;;15.40;74.30;;;;;;5050770;28;20045;-68
2022/07/05 02:08:52;;;;;;;0.00;0.00;;;15.30;74.20;;;;;;5044313;28;20102;-67
2022/07/05 02:11:18;;;;;;;0.00;0.00;;;15.30;74.40;;;;;;5036860;28;20099;-67
2022/07/05 02:13:43;;;;;;;0.00;0.00;;;15.30;74.30;;;;;;5050203;28;20098;-68
2022/07/05 02:16:09;;;;;;;0.00;0.00;;;15.30;74.40;;;;;;5050373;28;20406;-68
2022/07/05 02:18:34;;;;;;;0.00;0.00;;;15.20;74.30;;;;;;5050654;28;20040;-68
2022/07/05 02:21:00;;;;;;;0.00;0.00;;;15.20;74.20;;;;;;5052820;28;20107;-68
2022/07/05 02:23:25;;;;;;;0.00;0.00;;;15.20;74.20;;;;;;5069857;28;20048;-68
2022/07/05 02:25:51;;;;;;;0.00;0.00;;;15.20;74.40;;;;;;5070404;28;20040;-67
2022/07/05 02:28:17;;;;;;;0.00;0.00;;;15.20;74.50;;;;;;5070315;28;20130;-67
2022/07/05 02:30:43;;;;;;;0.00;0.00;;;15.20;74.80;;;;;;5069475;28;20196;-68
2022/07/05 02:33:08;;;;;;;0.00;0.00;;;15.10;74.90;;;;;;5069997;28;20055;-68
2022/07/05 02:35:34;;;;;;;0.00;0.00;;;15.10;75.30;;;;;;5070257;28;20040;-67
2022/07/05 02:37:59;;;;;;;0.00;0.00;;;15.10;75.30;;;;;;5068293;28;20045;-68
2022/07/05 02:40:25;;;;;;;0.00;0.00;;;15.10;75.70;;;;;;5065277;28;20044;-68
2022/07/05 02:42:50;;;;;;;0.00;0.00;;;15.10;76.00;;;;;;5049799;28;20043;-67
2022/07/05 02:45:16;;;;;;;0.00;0.00;;;15.10;75.80;;;;;;5050163;28;20045;-67
2022/07/05 02:47:42;;;;;;;0.00;0.00;;;15.00;75.80;;;;;;5050332;28;20074;-67
2022/07/05 02:50:09;;;;;;;0.00;0.00;;;15.00;76.20;;;;;;5068946;28;20036;-67
2022/07/05 02:52:35;;;;;;;0.00;0.00;;;15.00;76.60;;;;;;5070298;28;20131;-67
2022/07/05 02:55:04;;;;;;;0.00;0.00;;;15.00;76.60;;;;;;5069723;28;20063;-67
2022/07/05 02:57:30;;;;;;;0.00;0.00;;;15.00;76.70;;;;;;5070025;28;20045;-67
2022/07/05 02:59:56;;;;;;;0.00;0.00;;;15.00;76.60;;;;;;5069226;28;20055;-67
2022/07/05 03:02:23;;;;;;;0.00;0.00;;;15.00;76.50;;;;;;5069829;28;20691;-67
2022/07/05 03:04:49;;;;;;;0.00;0.00;;;15.00;76.30;;;;;;5069749;28;20120;-67
2022/07/05 03:07:15;;;;;;;0.00;0.00;;;15.00;76.10;;;;;;5069917;28;20553;-68
2022/07/05 03:09:40;;;;;;;0.00;0.00;;;15.10;76.30;;;;;;5056215;28;20037;-67
2022/07/05 03:12:07;;;;;;;0.00;0.00;;;15.00;76.00;;;;;;5058757;28;20086;-67
2022/07/05 03:14:32;;;;;;;0.05;0.05;;;15.00;76.40;;;;;;5069767;28;20113;-67
2022/07/05 03:16:58;;;;;;;0.00;0.00;;;15.10;76.40;;;;;;5069622;28;20505;-67
2022/07/05 03:19:23;;;;;;;0.00;0.00;;;15.00;76.60;;;;;;5069852;28;20040;-67
2022/07/05 03:21:49;;;;;;;0.00;0.00;;;15.00;76.60;;;;;;5052824;28;20040;-68
2022/07/05 03:24:14;;;;;;;0.00;0.00;;;15.00;76.50;;;;;;5064312;28;20102;-67
2022/07/05 03:26:40;;;;;;;0.00;0.00;;;15.00;76.30;;;;;;5049326;28;20064;-67
2022/07/05 03:29:06;;;;;;;0.00;0.00;;;15.00;76.30;;;;;;5064302;28;20218;-68
2022/07/05 03:31:31;;;;;;;0.00;0.00;;;15.00;76.30;;;;;;5054365;28;20049;-68
2022/07/05 03:33:57;;;;;;;0.00;0.00;;;15.00;76.00;;;;;;5049372;28;20057;-68
2022/07/05 03:36:22;;;;;;;0.00;0.00;;;15.00;75.90;;;;;;5049167;28;20845;-68
2022/07/05 03:38:48;;;;;;;0.00;0.00;;;15.00;75.70;;;;;;5049339;28;20049;-67
2022/07/05 03:41:15;;;;;;;0.00;0.00;;;15.00;75.50;;;;;;5049447;28;20051;-67
2022/07/05 03:43:40;;;;;;;0.00;0.00;;;15.00;75.30;;;;;;5069474;28;20514;-67
2022/07/05 03:46:06;;;;;;;0.00;0.00;;;14.90;75.10;;;;;;5064437;28;20077;-67
2022/07/05 03:48:33;;;;;;;0.00;0.00;;;14.90;75.40;;;;;;5049253;28;20037;-68
2022/07/05 03:50:58;;;;;;;0.00;0.00;;;14.90;75.50;;;;;;5050862;28;20048;-67
2022/07/05 03:53:24;;;;;;;0.00;0.00;;;14.80;75.70;;;;;;5052031;28;20044;-67
2022/07/05 03:55:50;;;;;;;0.00;0.00;;;14.90;75.80;;;;;;5052063;28;20041;-68
2022/07/05 03:58:15;;;;;;;0.00;0.00;;;14.90;75.80;;;;;;5052609;28;20045;-68
2022/07/05 04:00:41;;;;;;;0.00;0.00;;;14.90;75.90;;;;;;5055857;28;20075;-68
2022/07/05 04:03:06;;;;;;;0.05;0.05;;;14.90;75.80;;;;;;5051298;28;20044;-67
2022/07/05 04:05:32;;;;;;;0.03;0.03;;;14.90;75.80;;;;;;5052169;28;20489;-67
2022/07/05 04:07:58;;;;;;;0.00;0.00;;;14.80;75.80;;;;;;5052240;28;20106;-67
2022/07/05 04:10:23;;;;;;;0.00;0.00;;;14.90;75.80;;;;;;5052589;28;20044;-68
2022/07/05 04:12:49;;;;;;;0.00;0.00;;;14.90;76.00;;;;;;5052930;28;20051;-68
2022/07/05 04:15:15;;;;;;;0.00;0.00;;;14.90;76.10;;;;;;5051889;28;20547;-67
2022/07/05 04:17:53;;;;;;;0.00;0.00;;;14.90;76.30;;;;;;5052724;28;20045;-68
2022/07/05 04:20:21;;;;;;;0.08;0.08;;;14.90;76.00;;;;;;5052195;28;20061;-68
2022/07/05 04:22:48;;;;;;;0.00;0.00;;;14.90;75.60;;;;;;5051261;28;20049;-68
2022/07/05 04:25:16;;;;;;;0.00;0.00;;;14.90;75.40;;;;;;5040292;28;20108;-67
2022/07/05 04:27:46;;;;;;;0.00;0.00;;;14.80;75.70;;;;;;5051502;28;20041;-67
2022/07/05 04:30:12;;;;;;;0.00;0.00;;;14.90;75.90;;;;;;5050782;28;20452;-67
2022/07/05 04:32:38;;;;;;;0.40;0.40;;;14.90;76.10;;;;;;5050444;28;20485;-68
2022/07/05 04:35:04;;;;;;;0.00;0.00;;;14.90;75.90;;;;;;5061570;28;20045;-67
2022/07/05 04:37:30;;;;;;;0.08;0.08;;;15.00;75.70;;;;;;5050197;28;20037;-67
2022/07/05 04:39:55;;;;;;;0.00;0.00;;;15.00;75.60;;;;;;5051029;28;20049;-67
2022/07/05 04:42:21;;;;;;;0.00;0.00;;;15.10;75.60;;;;;;5052334;28;20052;-67
2022/07/05 04:44:46;;;;;;;0.10;0.10;;;15.10;75.50;;;;;;5052965;28;20132;-67
2022/07/05 04:47:12;;;;;;;0.10;0.10;;;15.10;75.40;;;;;;5050148;28;20041;-67
2022/07/05 04:49:37;;;;;;;0.00;0.00;;;15.20;75.40;;;;;;5050680;28;20068;-67
2022/07/05 04:52:03;;;;;;;0.00;0.00;;;15.30;75.60;;;;;;5050474;28;20036;-67
2022/07/05 04:54:29;;;;;;;0.00;0.00;;;15.30;75.60;;;;;;5049731;28;20446;-67
2022/07/05 04:56:54;;;;;;;0.00;0.00;;;15.30;75.40;;;;;;5049798;28;20098;-67
2022/07/05 04:59:20;;;;;;;0.00;0.00;;;15.40;75.40;;;;;;5049776;28;20506;-68
2022/07/05 05:01:45;;;;;;;0.00;0.00;;;15.40;75.30;;;;;;5048859;28;20064;-68
2022/07/05 05:04:11;;;;;;;0.00;0.00;;;15.50;75.20;;;;;;5050294;28;20226;-68
2022/07/05 05:06:37;;;;;;;0.00;0.00;;;15.60;75.10;;;;;;5049602;28;20144;-68
2022/07/05 05:09:02;;;;;;;0.00;0.00;;;15.60;75.30;;;;;;5048954;28;20049;-67
2022/07/05 05:11:28;;;;;;;0.00;0.00;;;15.60;75.00;;;;;;5049433;28;20756;-68
2022/07/05 05:13:54;;;;;;;0.00;0.00;;;15.70;75.00;;;;;;5049412;28;21415;-67
2022/07/05 05:16:20;;;;;;;0.00;0.00;;;15.70;75.10;;;;;;5049715;28;20490;-68
2022/07/05 05:18:45;;;;;;;0.00;0.00;;;15.80;75.60;;;;;;5049609;28;20049;-67
2022/07/05 05:21:11;;;;;;;0.00;0.00;;;15.80;75.80;;;;;;5049171;28;20132;-68
2022/07/05 05:23:37;;;;;;;0.00;0.00;;;15.80;75.70;;;;;;5049736;28;20895;-68
2022/07/05 05:26:02;;;;;;;0.80;0.73;;;15.90;76.10;;;;;;5049270;28;20582;-68
2022/07/05 05:28:28;;;;;;;0.00;0.00;;;15.90;76.00;;;;;;5048961;28;20045;-69
2022/07/05 05:30:53;;;;;;;0.00;0.00;;;16.00;76.30;;;;;;5049492;28;20567;-67
2022/07/05 05:33:19;;;;;;;0.00;0.00;;;16.00;76.00;;;;;;5048929;28;20140;-69
2022/07/05 05:35:45;;;;;;;0.00;0.00;;;16.10;76.60;;;;;;5048526;28;20049;-67
2022/07/05 05:38:10;;;;;;;0.00;0.00;;;16.10;77.00;;;;;;5049033;28;20512;-67
2022/07/05 05:40:41;;;;;;;0.00;0.00;;;16.10;77.00;;;;;;5049258;28;20465;-68
2022/07/05 05:43:06;;;;;;;0.00;0.00;;;16.10;76.80;;;;;;5048347;28;20063;-67
2022/07/05 05:45:32;;;;;;;0.00;0.00;;;16.20;76.90;;;;;;5049330;28;20041;-68
2022/07/05 05:47:59;;;;;;;0.00;0.00;;;16.30;77.10;;;;;;5047216;28;20072;-68
2022/07/05 05:50:36;;;;;;;0.00;0.00;;;16.20;77.00;;;;;;5049198;28;20059;-68
2022/07/05 05:53:02;;;;;;;0.00;0.00;;;16.30;77.10;;;;;;5048643;28;20095;-68
2022/07/05 05:55:29;;;;;;;0.00;0.00;;;16.40;77.00;;;;;;5048525;28;20052;-67
2022/07/05 05:57:55;;;;;;;0.00;0.00;;;16.50;77.20;;;;;;5048317;28;20045;-68
2022/07/05 06:00:21;;;;;;;0.00;0.00;;;16.50;77.10;;;;;;5055457;28;20076;-69
2022/07/05 06:02:49;;;;;;;0.00;0.00;;;16.60;76.90;;;;;;5060154;28;20051;-68
2022/07/05 06:05:15;;;;;;;0.00;0.00;;;16.60;77.00;;;;;;5047450;28;20080;-68
2022/07/05 06:07:52;;;;;;;0.00;0.00;;;16.60;76.60;;;;;;5048536;28;20033;-68
2022/07/05 06:10:19;;;;;;;0.10;0.10;;;16.60;76.20;;;;;;5047523;28;20085;-66
2022/07/05 06:12:45;;;;;;;0.55;0.55;;;16.70;76.20;;;;;;5047071;28;20033;-62
2022/07/05 06:15:11;;;;;;;0.00;0.00;;;16.90;76.70;;;;;;5050259;28;20047;-60
2022/07/05 06:17:37;;;;;;;0.00;0.00;;;17.00;76.20;;;;;;5064360;28;20519;-65
2022/07/05 06:20:15;;;;;;;0.00;0.00;;;17.10;75.60;;;;;;5049212;28;20455;-66
2022/07/05 06:22:41;;;;;;;0.00;0.00;;;17.10;75.30;;;;;;5049114;28;20090;-67
2022/07/05 06:25:07;;;;;;;0.00;0.00;;;17.10;74.90;;;;;;5049051;28;20417;-67
2022/07/05 06:27:39;;;;;;;0.00;0.00;;;17.10;74.30;;;;;;5066551;28;20045;-68
2022/07/05 06:30:05;;;;;;;0.00;0.00;;;17.10;73.60;;;;;;5049208;28;20053;-68
2022/07/05 06:32:31;;;;;;;0.00;0.00;;;17.10;74.50;;;;;;5048883;28;20049;-67
2022/07/05 06:34:56;;;;;;;0.00;0.00;;;17.10;73.80;;;;;;5051312;28;20062;-66
2022/07/05 06:37:22;;;;;;;0.00;0.00;;;17.20;72.90;;;;;;5069274;28;20087;-67
2022/07/05 06:39:47;;;;;;;0.00;0.00;;;17.30;73.10;;;;;;5049314;28;20048;-67
2022/07/05 06:42:13;;;;;;;0.00;0.00;;;17.20;72.50;;;;;;5047397;28;20123;-67
2022/07/05 06:44:38;;;;;;;0.00;0.00;;;17.20;71.70;;;;;;5034486;28;20120;-67
2022/07/05 06:47:04;;;;;;;0.00;0.00;;;17.20;71.40;;;;;;5044167;28;20041;-67
2022/07/05 06:49:30;;;;;;;0.00;0.00;;;17.10;70.60;;;;;;5047648;28;20112;-68
2022/07/05 06:51:55;;;;;;;0.00;0.00;;;17.20;70.70;;;;;;5042666;28;20045;-67
2022/07/05 06:54:21;;;;;;;0.00;0.00;;;17.20;70.50;;;;;;5040222;28;20044;-67
2022/07/05 06:56:46;;;;;;;3.90;1.65;;;17.20;68.40;;;;;;5050882;28;20040;-67
2022/07/05 06:59:12;;;;;;;0.00;0.00;;;17.30;68.60;;;;;;5048042;28;20041;-67
2022/07/05 07:01:37;;;;;;;0.03;0.03;;;17.30;68.00;;;;;;5041170;28;20037;-68
2022/07/05 07:04:03;;;;;;;0.00;0.00;;;17.30;68.40;;;;;;5046849;28;20060;-67
2022/07/05 07:06:29;;;;;;;0.00;0.00;;;17.30;66.80;;;;;;5050406;28;20041;-67
2022/07/05 07:11:38;;;;;;;0.00;0.00;;;17.40;67.50;;;;;;5057505;28;20052;-69
2022/07/05 07:14:04;;;;;;;0.00;0.00;;;17.50;68.50;;;;;;5047436;28;20052;-69
2022/07/05 07:16:30;;;;;;;0.00;0.00;;;17.60;68.30;;;;;;5048330;28;20056;-69
2022/07/05 07:18:56;;;;;;;0.00;0.00;;;17.70;68.60;;;;;;5048102;28;20036;-68
2022/07/05 07:21:22;;;;;;;0.00;0.00;;;17.60;67.30;;;;;;5046726;28;20483;-69
2022/07/05 07:23:48;;;;;;;0.00;0.00;;;17.60;67.50;;;;;;5048756;28;20077;-68
2022/07/05 07:26:13;;;;;;;0.00;0.00;;;17.60;67.60;;;;;;5051962;28;20037;-69
2022/07/05 07:28:40;;;;;;;0.00;0.00;;;17.70;67.90;;;;;;5051349;28;20045;-70
2022/07/05 07:31:06;;;;;;;0.00;0.00;;;17.70;66.60;;;;;;5042443;28;20439;-69
2022/07/05 07:33:33;;;;;;;0.00;0.00;;;17.70;66.80;;;;;;5048011;28;20148;-70
2022/07/05 07:35:58;;;;;;;0.00;0.00;;;17.60;67.00;;;;;;5048098;28;20057;-70
2022/07/05 07:38:25;;;;;;;0.00;0.00;;;17.50;68.20;;;;;;5048309;28;20522;-70
2022/07/05 07:40:51;;;;;;;0.00;0.00;;;17.60;68.60;;;;;;5044176;28;20052;-69
2022/07/05 07:43:17;;;;;;;0.00;0.00;;;17.60;68.90;;;;;;5031706;28;20045;-69
2022/07/05 07:45:43;;;;;;;0.00;0.00;;;17.70;67.70;;;;;;5045501;28;20048;-69
2022/07/05 07:48:08;;;;;;;0.00;0.00;;;17.90;67.40;;;;;;5039497;28;20076;-69
2022/07/05 07:50:34;;;;;;;0.00;0.00;;;18.00;65.30;;;;;;5068241;28;20048;-70
2022/07/05 07:53:00;;;;;;;0.00;0.00;;;18.10;65.00;;;;;;5047868;28;20041;-66
2022/07/05 07:55:26;;;;;;;0.00;0.00;;;18.10;66.10;;;;;;5050646;28;20394;-69
2022/07/05 07:57:52;;;;;;;0.00;0.00;;;18.10;65.00;;;;;;5048203;28;20076;-69
2022/07/05 08:00:18;;;;;;;0.10;0.10;;;18.00;62.80;;;;;;5030997;28;20115;-69
2022/07/05 08:02:44;;;;;;;0.00;0.00;;;17.90;64.40;;;;;;5033511;28;20052;-69
2022/07/05 08:05:09;;;;;;;0.00;0.00;;;17.80;66.10;;;;;;5040474;28;20049;-70
2022/07/05 08:07:38;;;;;;;0.00;0.00;;;17.80;67.00;;;;;;5041299;28;20128;-70
2022/07/05 08:10:07;;;;;;;0.00;0.00;;;17.90;65.80;;;;;;5039802;28;20033;-69
2022/07/05 08:12:33;;;;;;;0.00;0.00;;;18.10;64.40;;;;;;5029947;28;20057;-69
2022/07/05 08:14:59;;;;;;;0.00;0.00;;;18.20;62.00;;;;;;5046427;28;20777;-68
2022/07/05 08:17:24;;;;;;;0.00;0.00;;;18.30;61.50;;;;;;5042486;28;20045;-69
2022/07/05 08:22:34;;;;;;;0.00;0.00;;;18.30;61.00;;;;;;5045499;28;20049;-68
2022/07/05 08:25:01;;;;;;;0.00;0.00;;;18.30;62.20;;;;;;5030955;28;20410;-68
2022/07/05 08:27:26;;;;;;;0.00;0.00;;;18.40;61.60;;;;;;5039005;28;20048;-68
2022/07/05 08:29:52;;;;;;;0.00;0.00;;;18.30;62.90;;;;;;5049698;28;20082;-68
2022/07/05 08:32:18;;;;;;;0.00;0.00;;;18.30;64.10;;;;;;5050836;28;20524;-68
2022/07/05 08:34:44;;;;;;;0.32;0.32;;;18.20;65.40;;;;;;5050804;28;20049;-67
2022/07/05 08:37:10;;;;;;;0.00;0.00;;;18.20;66.30;;;;;;5036879;28;20041;-68
2022/07/05 08:39:35;;;;;;;0.00;0.00;;;18.10;66.20;;;;;;5069073;28;20599;-67
2022/07/05 08:42:02;;;;;;;0.00;0.00;;;18.10;66.70;;;;;;5069379;28;20123;-67
2022/07/05 08:44:32;;;;;;;0.00;0.00;;;18.00;66.40;;;;;;5043612;28;20041;-66
2022/07/05 08:47:01;;;;;;;0.00;0.00;;;18.00;66.90;;;;;;5035375;28;20725;-67
2022/07/05 08:49:28;;;;;;;0.10;0.10;;;18.10;66.70;;;;;;5048606;28;20567;-67
2022/07/05 08:51:55;;;;;;;0.00;0.00;;;18.10;66.20;;;;;;5049726;28;20052;-67
2022/07/05 08:54:23;;;;;;;0.00;0.00;;;18.20;64.10;;;;;;5050524;28;20155;-67
2022/07/05 08:56:49;;;;;;;0.00;0.00;;;18.30;63.30;;;;;;5051379;28;20479;-67
2022/07/05 08:59:15;;;;;;;0.00;0.00;;;18.30;63.20;;;;;;5048343;28;20069;-67
2022/07/05 09:01:42;;;;;;;0.00;0.00;;;18.40;63.90;;;;;;5050649;28;20045;-68
2022/07/05 09:04:09;;;;;;;0.00;0.00;;;18.60;62.00;;;;;;5049621;28;20044;-66
2022/07/05 09:06:38;;;;;;;0.00;0.00;;;18.50;60.10;;;;;;5049766;28;20037;-68
2022/07/05 09:09:05;;;;;;;0.00;0.00;;;18.60;62.20;;;;;;5048381;28;20051;-67
2022/07/05 09:11:39;;;;;;;0.00;0.00;;;18.80;62.60;;;;;;5049999;28;20041;-67
2022/07/05 09:14:06;;;;;;;0.13;0.13;;;18.90;59.70;;;;;;5049757;28;20033;-68
2022/07/05 09:16:32;;;;;;;0.00;0.00;;;18.80;58.00;;;;;;5050457;28;20398;-67
2022/07/05 09:19:08;;;;;;;0.10;0.10;;;18.60;59.10;;;;;;5042098;28;20045;-66
2022/07/05 09:21:34;;;;;;;0.00;0.00;;;18.50;60.20;;;;;;5048077;28;20047;-67
2022/07/05 09:24:00;;;;;;;0.00;0.00;;;18.30;60.10;;;;;;5049962;28;20045;-67
2022/07/05 09:26:33;;;;;;;0.00;0.00;;;18.30;60.00;;;;;;5048053;28;20068;-66
2022/07/05 09:28:59;;;;;;;0.00;0.00;;;18.40;60.20;;;;;;5038635;28;20391;-67
2022/07/05 09:31:30;;;;;;;0.45;0.45;;;18.60;60.20;;;;;;5035366;28;20056;-67
2022/07/05 09:34:12;;;;;;;0.45;0.45;;;18.70;56.90;;;;;;5044863;28;20072;-66
2022/07/05 09:37:04;;;;;;;0.00;0.00;;;18.70;58.30;;;;;;5036540;28;20124;-66
2022/07/05 09:39:30;;;;;;;0.00;0.00;;;18.60;57.80;;;;;;5048280;28;20045;-68
2022/07/05 09:42:14;;;;;;;0.10;0.10;;;18.50;60.90;;;;;;5040231;28;20089;-67
2022/07/05 09:44:51;;;;;;;0.00;0.00;;;18.30;61.00;;;;;;5045083;28;20049;-67
2022/07/05 09:47:18;;;;;;;1.65;1.38;;;18.30;62.50;;;;;;5047334;28;20077;-67
2022/07/05 09:49:52;;;;;;;0.20;0.20;;;18.10;63.10;;;;;;5048962;28;20115;-67
2022/07/05 09:52:28;;;;;;;0.22;0.22;;;18.20;63.20;;;;;;5048954;28;20106;-67
2022/07/05 09:55:09;;;;;;;0.00;0.00;;;18.30;64.10;;;;;;5048528;28;20041;-68
2022/07/05 09:57:36;;;;;;;0.00;0.00;;;18.50;64.70;;;;;;5039193;28;20037;-67
2022/07/05 10:00:03;;;;;;;0.00;0.00;;;18.50;62.00;;;;;;5034792;28;20505;-67
2022/07/05 10:02:47;;;;;;;0.00;0.00;;;18.30;62.00;;;;;;5046881;28;20122;-67
2022/07/05 10:05:21;;;;;;;0.00;0.00;;;18.20;63.60;;;;;;5044007;28;20040;-67
2022/07/05 10:07:51;;;;;;;0.00;0.00;;;18.20;63.70;;;;;;5049116;28;20143;-67
2022/07/05 10:10:27;;;;;;;0.00;0.00;;;18.30;63.70;;;;;;5046610;28;20041;-67
2022/07/05 10:13:07;;;;;;;0.00;0.00;;;18.30;63.50;;;;;;5057098;28;20906;-66
2022/07/05 10:15:35;;;;;;;0.00;0.00;;;18.30;62.90;;;;;;5044708;28;20077;-67
2022/07/05 10:18:12;;;;;;;0.00;0.00;;;18.30;63.60;;;;;;5048313;28;20041;-66
2022/07/05 10:20:42;;;;;;;0.00;0.00;;;18.50;62.40;;;;;;5047340;28;20040;-67
2022/07/05 10:23:17;;;;;;;0.10;0.10;;;18.40;59.00;;;;;;5048065;28;20042;-67
2022/07/05 10:25:47;;;;;;;0.00;0.00;;;18.30;58.30;;;;;;5046763;28;20391;-66
2022/07/05 10:28:14;;;;;;;0.00;0.00;;;18.10;60.00;;;;;;5047366;28;20702;-67
2022/07/05 10:30:40;;;;;;;0.00;0.00;;;18.20;60.90;;;;;;5046940;28;20061;-67
2022/07/05 10:33:07;;;;;;;0.00;0.00;;;18.30;62.60;;;;;;5047539;28;20045;-67
2022/07/05 10:35:34;;;;;;;0.00;0.00;;;18.50;61.40;;;;;;5048119;28;20094;-67
2022/07/05 10:38:01;;;;;;;0.00;0.00;;;18.80;61.10;;;;;;5048630;28;20033;-69
2022/07/05 10:40:28;;;;;;;0.00;0.00;;;19.00;60.20;;;;;;5047936;28;20048;-67
2022/07/05 10:42:59;;;;;;;0.00;0.00;;;19.00;59.00;;;;;;5046084;28;20049;-67
2022/07/05 10:45:32;;;;;;;0.00;0.00;;;19.10;59.10;;;;;;5042693;28;20042;-67
2022/07/05 10:48:16;;;;;;;0.00;0.00;;;19.10;60.10;;;;;;5042376;28;20163;-67
2022/07/05 10:50:54;;;;;;;0.65;0.65;;;19.40;59.70;;;;;;5033316;28;20049;-67
2022/07/05 10:53:36;;;;;;;0.00;0.00;;;19.40;58.50;;;;;;5046673;28;20138;-66
2022/07/05 10:56:05;;;;;;;0.00;0.00;;;19.30;59.00;;;;;;5043666;28;20033;-66
2022/07/05 10:58:36;;;;;;;0.00;0.00;;;19.30;59.10;;;;;;5059913;28;20057;-67
2022/07/05 11:01:23;;;;;;;0.00;0.00;;;19.30;60.40;;;;;;5048695;28;20098;-67
2022/07/05 11:04:21;;;;;;;0.00;0.00;;;19.00;61.80;;;;;;5050842;28;20053;-65
2022/07/05 11:06:46;;;;;;;0.20;0.20;;;18.80;62.50;;;;;;5050334;28;20099;-70
2022/07/05 11:09:20;;;;;;;0.00;0.00;;;18.60;63.60;;;;;;5045901;28;20506;-70
2022/07/05 11:12:07;;;;;;;0.00;0.00;;;18.30;65.10;;;;;;5052606;28;20045;-69
2022/07/05 11:14:37;;;;;;;0.00;0.00;;;18.20;66.20;;;;;;5049226;28;20089;-69
2022/07/05 11:17:09;;;;;;;0.52;0.52;;;18.00;66.80;;;;;;5040828;28;20052;-69
2022/07/05 11:19:55;;;;;;;0.65;0.45;;;18.00;66.60;;;;;;5071437;28;20128;-69
2022/07/05 11:22:21;;;;;;;0.00;0.00;;;17.90;67.20;;;;;;5065461;28;20096;-70
2022/07/05 11:24:47;;;;;;;0.00;0.00;;;17.80;68.50;;;;;;5050500;28;20061;-69
2022/07/05 11:27:13;;;;;;;0.00;0.00;;;17.80;68.80;;;;;;5034416;28;20410;-68
2022/07/05 11:29:53;;;;;;;0.00;0.00;;;17.90;68.60;;;;;;5049837;28;20059;-69
2022/07/05 11:32:29;;;;;;;0.00;0.00;;;17.90;67.30;;;;;;5047133;28;20044;-69
2022/07/05 11:35:11;;;;;;;0.00;0.00;;;18.00;66.50;;;;;;5048229;28;20099;-69
2022/07/05 11:38:03;;;;;;;0.08;0.08;;;18.00;65.70;;;;;;5040233;28;20045;-69
2022/07/05 11:40:31;;;;;;;0.00;0.00;;;18.10;65.80;;;;;;5041721;28;20503;-67
2022/07/05 11:42:58;;;;;;;0.00;0.00;;;18.10;63.90;;;;;;5046793;28;20746;-70
2022/07/05 11:45:24;;;;;;;0.10;0.10;;;18.10;64.10;;;;;;5039624;28;20536;-67
2022/07/05 11:47:54;;;;;;;0.00;0.00;;;18.20;64.30;;;;;;5044943;28;20493;-67
2022/07/05 11:50:31;;;;;;;0.00;0.00;;;18.30;63.80;;;;;;5050307;28;20182;-67
2022/07/05 11:52:59;;;;;;;0.00;0.00;;;18.40;63.10;;;;;;5047985;28;20782;-67
2022/07/05 11:55:26;;;;;;;0.00;0.00;;;18.30;62.70;;;;;;5042339;28;20048;-67
2022/07/05 11:57:53;;;;;;;0.00;0.00;;;18.50;63.40;;;;;;5046464;28;20068;-67
2022/07/05 12:00:29;;;;;;;0.00;0.00;;;18.60;61.10;;;;;;5041668;28;20037;-67
2022/07/05 12:02:55;;;;;;;0.00;0.00;;;18.60;60.30;;;;;;5039658;28;20049;-67
2022/07/05 12:05:21;;;;;;;0.00;0.00;;;18.60;60.90;;;;;;5038342;28;20120;-67
2022/07/05 12:07:51;;;;;;;0.00;0.00;;;18.80;59.10;;;;;;5044125;28;20054;-67
2022/07/05 12:13:08;;;;;;;0.00;0.00;;;19.00;59.40;;;;;;5044739;28;20049;-66
2022/07/05 12:15:36;;;;;;;0.43;0.43;;;19.10;59.80;;;;;;5050732;28;20060;-65
2022/07/05 12:18:03;;;;;;;0.10;0.08;;;19.40;61.20;;;;;;5053075;28;20036;-66
2022/07/05 12:20:34;;;;;;;0.00;0.00;;;19.50;59.20;;;;;;5043514;28;20055;-66
2022/07/05 12:23:00;;;;;;;0.00;0.00;;;19.40;58.30;;;;;;5043608;28;20129;-66
2022/07/05 12:25:28;;;;;;;0.00;0.00;;;19.20;58.00;;;;;;5047829;28;20060;-66
2022/07/05 12:27:56;;;;;;;0.00;0.00;;;19.10;52.80;;;;;;5049067;28;20041;-67
2022/07/05 12:30:22;;;;;;;0.00;0.00;;;18.80;53.20;;;;;;5049653;28;20059;-65
2022/07/05 12:33:09;;;;;;;0.00;0.00;;;18.80;56.40;;;;;;5049315;28;20045;-66
2022/07/05 12:35:47;;;;;;;0.00;0.00;;;18.80;55.50;;;;;;5049489;28;20099;-66
2022/07/05 12:38:18;;;;;;;0.00;0.00;;;18.90;57.50;;;;;;5049884;28;20426;-67
2022/07/05 12:40:45;;;;;;;0.00;0.00;;;18.90;56.60;;;;;;5050323;28;20048;-66
2022/07/05 12:43:13;;;;;;;0.00;0.00;;;19.00;58.20;;;;;;5050421;28;20045;-67
2022/07/05 12:45:41;;;;;;;0.00;0.00;;;19.00;57.90;;;;;;5049907;28;20456;-66
2022/07/05 12:48:08;;;;;;;0.00;0.00;;;19.10;59.10;;;;;;5049764;28;20520;-66
2022/07/05 12:50:51;;;;;;;0.00;0.00;;;19.00;59.10;;;;;;5049822;28;20502;-67
2022/07/05 12:58:57;;;;;;;0.00;0.00;;;18.80;60.50;;;;;;5049192;28;20045;-66
2022/07/05 13:01:27;;;;;;;0.00;0.00;;;18.90;61.30;;;;;;5027697;28;20065;-67
2022/07/05 13:04:10;;;;;;;0.00;0.00;;;19.00;60.20;;;;;;5043453;28;20540;-67
2022/07/05 13:06:58;;;;;;;0.00;0.00;;;19.00;59.90;;;;;;5049267;28;20464;-66
2022/07/05 13:12:30;;;;;;;0.00;0.00;;;19.00;58.90;;;;;;5049715;28;20052;-65
2022/07/05 13:14:56;;;;;;;0.00;0.00;;;18.70;61.40;;;;;;5021331;28;20611;-66
2022/07/05 13:17:24;;;;;;;0.00;0.00;;;18.60;60.30;;;;;;5038829;28;20330;-65
2022/07/05 13:19:51;;;;;;;0.00;0.00;;;18.60;60.00;;;;;;5048224;28;20567;-66
2022/07/05 13:22:17;;;;;;;0.00;0.00;;;18.60;58.70;;;;;;5048296;28;20049;-66
2022/07/05 13:24:44;;;;;;;0.00;0.00;;;18.70;59.60;;;;;;5048669;28;20049;-66
2022/07/05 13:27:11;;;;;;;0.00;0.00;;;18.80;59.40;;;;;;5048002;28;20055;-66
2022/07/05 13:29:37;;;;;;;0.00;0.00;;;18.80;59.10;;;;;;5041467;28;20080;-65
2022/07/05 13:32:03;;;;;;;0.00;0.00;;;19.00;60.10;;;;;;5047134;28;20502;-66
2022/07/05 13:34:29;;;;;;;0.00;0.00;;;19.10;60.90;;;;;;5049134;28;20048;-66
2022/07/05 13:36:56;;;;;;;0.00;0.00;;;19.30;60.30;;;;;;5036298;28;20053;-65
2022/07/05 13:39:23;;;;;;;0.00;0.00;;;19.30;59.80;;;;;;5048567;28;20116;-66
2022/07/05 13:41:50;;;;;;;0.00;0.00;;;19.00;57.90;;;;;;5046393;28;20524;-65
2022/07/05 13:44:16;;;;;;;0.00;0.00;;;19.10;58.90;;;;;;5047475;28;20055;-65
2022/07/05 13:46:42;;;;;;;0.00;0.00;;;19.10;58.70;;;;;;5048641;28;20049;-66
2022/07/05 13:49:08;;;;;;;0.00;0.00;;;19.10;59.80;;;;;;5049184;28;20094;-65
2022/07/05 13:51:34;;;;;;;0.00;0.00;;;19.10;60.30;;;;;;5043342;28;20142;-65
2022/07/05 13:53:59;;;;;;;0.00;0.00;;;19.00;59.50;;;;;;5046829;28;20497;-65
2022/07/05 13:56:26;;;;;;;0.00;0.00;;;18.90;60.30;;;;;;5034084;28;20124;-66
2022/07/05 13:58:55;;;;;;;0.00;0.00;;;18.60;59.90;;;;;;5045557;28;20052;-65
2022/07/05 14:01:26;;;;;;;0.00;0.00;;;18.60;60.20;;;;;;5034219;28;20845;-64
2022/07/05 14:03:56;;;;;;;0.00;0.00;;;18.50;60.20;;;;;;5027406;28;20422;-65
2022/07/05 14:06:22;;;;;;;4.75;0.70;;;18.30;61.00;;;;;;5030976;28;20060;-66
2022/07/05 14:08:48;;;;;;;0.30;0.30;;;18.30;62.20;;;;;;5016865;28;20040;-65
2022/07/05 14:11:14;;;;;;;0.15;0.15;;;18.40;62.40;;;;;;5026010;28;20041;-65
2022/07/05 14:13:40;;;;;;;0.10;0.10;;;18.40;62.50;;;;;;5027726;28;20127;-65
2022/07/05 14:16:07;;;;;;;5.90;1.67;;;18.30;62.40;;;;;;5028530;28;20057;-65
2022/07/05 14:18:32;;;;;;;0.00;0.00;;;18.20;60.70;;;;;;5046148;28;20049;-65
2022/07/05 14:20:58;;;;;;;0.00;0.00;;;18.30;62.30;;;;;;5032789;28;20091;-64
2022/07/05 14:23:24;;;;;;;0.00;0.00;;;18.30;62.10;;;;;;5043739;28;20395;-65
2022/07/05 14:25:49;;;;;;;0.00;0.00;;;18.20;61.90;;;;;;5047458;28;20052;-66
2022/07/05 14:28:15;;;;;;;0.00;0.00;;;18.20;61.70;;;;;;5047891;28;20493;-66
2022/07/05 14:30:43;;;;;;;0.00;0.00;;;18.30;62.10;;;;;;5047233;28;20071;-64
2022/07/05 14:33:10;;;;;;;0.00;0.00;;;18.40;61.60;;;;;;5021421;28;20791;-66
2022/07/05 14:35:36;;;;;;;0.00;0.00;;;18.50;61.20;;;;;;5037621;28;20055;-64
2022/07/05 14:38:02;;;;;;;0.00;0.00;;;18.60;59.40;;;;;;5035545;28;20398;-65